Minneapolis, MN (55416)

9:52 AM CDT on August 27, 2016 (GMT -0500)
Sunset Gables | | Change Station

Elev 892 ft 44.95 °N, 93.33 °W | Updated 2 minutes ago

Rain
Rain
63.4 °F
Feels Like 63.4 °F
N
0.0
Wind Variable Wind from North
Gusts 1.0 mph

Today
High -- | Low -- °F
--% Chance of Precip.
Yesterday
High -- | Low -- °F
Precip. -- in
Pressure 30.06 in
Visibility 10.0 miles
Clouds Few 1200 ft
Scattered Clouds 8000 ft
Overcast 11000 ft
Dew Point 61 °F
Humidity 91%
Rainfall 0.05 in
Snow Depth Not available.
6:30 AM 7:58 PM
Waning Crescent, 24% visible
METAR KMSP 271353Z 11007KT 10SM FEW012 SCT080 OVC110 18/15 A3007 RMK AO2 RAE01 SLP180 P0000 T01780150
Pressure 30.06 in
Visibility 10.0 miles
Clouds Few 1200 ft
Scattered Clouds 8000 ft
Overcast 11000 ft
Dew Point 61 °F
Humidity 91%
Rainfall 0.05 in
Snow Depth Not available.
6:30 AM 7:58 PM
Waning Crescent, 24% visible
METAR KMSP 271353Z 11007KT 10SM FEW012 SCT080 OVC110 18/15 A3007 RMK AO2 RAE01 SLP180 P0000 T01780150

10-Day Weather Forecast

Almanac

Astronomy

Aug. 27, 2016 Rise Set
Actual Time
Civil Twilight
Nautical Twilight
Astronomical Twilight
Moon
Length of Visible Light
Length of Day
Tomorrow will be .
, % of the Moon is Illuminated

Today's Extremes

State Highs State Lows

Community

WunderPhotos

Upload Photos

1,935,344 photos uploaded!

WunderBlog® & News

Nearby

Air Quality

  Air Quality AQ Index Pollutant
Not available.

Snow Depth

Station Depth Elevation

Earthquake Activity

City Distance Mag. Time & Date
Minimum magnitude displayed is 2.5.

Coastal Water Temperatures

Place Temperature

Stations

Nearby Weather Stations

Station Location Temp. Windchill Dew Point Humidity Wind Precip. Elev Updated Type
                   

Watches & Warnings

There are currently no watches in effect.